Time;durP1;ratioP1;P1;durP2;ratioP2;P2;SDS_P1;SDS_P2;PMS_P1;PMS_P2;Temp;Humidity;BMP_temperature;BMP_pressure;BME280_temperature;BME280_humidity;BME280_pressure;Samples;Min_cycle;Max_cycle;Signal;HPM_P1;HPM_P2
2022/08/05 00:02:13;;;;;;;9.33;6.35;;;;;;;23.65;100.00;99578.53;1734768;82;21602;-67
2022/08/05 00:04:39;;;;;;;11.93;5.47;;;;;;;23.61;100.00;99577.76;1734989;82;20999;-67
2022/08/05 00:07:06;;;;;;;7.45;5.50;;;;;;;23.54;100.00;99572.34;1735198;82;20875;-67
2022/08/05 00:09:32;;;;;;;6.80;5.47;;;;;;;23.49;100.00;99574.17;1735147;81;21547;-67
2022/08/05 00:11:58;;;;;;;7.20;5.92;;;;;;;23.48;100.00;99578.80;1768299;80;20985;-68
2022/08/05 00:14:25;;;;;;;7.17;4.92;;;;;;;23.48;100.00;99571.77;1779837;80;21110;-68
2022/08/05 00:16:51;;;;;;;9.10;5.53;;;;;;;23.48;100.00;99568.36;1780153;80;21024;-66
2022/08/05 00:19:17;;;;;;;9.50;5.65;;;;;;;23.50;100.00;99579.20;1778800;78;21043;-67
2022/08/05 00:21:44;;;;;;;7.17;6.10;;;;;;;23.53;100.00;99580.59;1750030;80;21040;-68
2022/08/05 00:24:11;;;;;;;8.83;5.72;;;;;;;23.58;100.00;99573.73;1788237;80;21050;-67
2022/08/05 00:26:37;;;;;;;7.35;6.53;;;;;;;23.57;100.00;99580.58;1788370;80;21577;-67
2022/08/05 00:29:04;;;;;;;9.58;6.20;;;;;;;23.53;100.00;99582.59;1787531;78;21530;-68
2022/08/05 00:31:32;;;;;;;10.65;5.87;;;;;;;23.50;100.00;99583.41;1779817;80;21551;-68
2022/08/05 00:33:58;;;;;;;8.35;6.70;;;;;;;23.48;100.00;99584.42;1779812;80;21039;-68
2022/08/05 00:36:25;;;;;;;11.63;6.22;;;;;;;23.48;100.00;99585.23;1779707;80;21508;-67
2022/08/05 00:38:51;;;;;;;8.98;6.55;;;;;;;23.51;100.00;99579.41;1779767;80;22152;-68
2022/08/05 00:41:32;;;;;;;10.03;6.50;;;;;;;23.55;100.00;99583.00;1788127;80;21557;-67
2022/08/05 00:43:59;;;;;;;8.28;6.33;;;;;;;23.50;100.00;99579.20;1782593;78;21752;-67
2022/08/05 00:46:26;;;;;;;7.78;6.15;;;;;;;23.48;100.00;99572.58;1777339;78;21078;-68
2022/08/05 00:48:54;;;;;;;11.35;6.78;;;;;;;23.47;100.00;99565.37;1780055;78;21409;-67
2022/08/05 00:51:22;;;;;;;8.88;6.83;;;;;;;23.44;100.00;99565.56;1779837;80;21607;-67
2022/08/05 00:53:50;;;;;;;7.62;6.62;;;;;;;23.32;100.00;99565.38;1779534;78;21005;-67
2022/08/05 00:56:16;;;;;;;7.67;6.65;;;;;;;23.30;100.00;99562.17;1779728;80;20980;-67
2022/08/05 00:58:47;;;;;;;11.53;6.83;;;;;;;23.35;100.00;99575.02;1779675;78;21027;-69
2022/08/05 01:01:16;;;;;;;7.67;6.33;;;;;;;23.35;100.00;99572.99;1779897;80;20912;-67
2022/08/05 01:03:42;;;;;;;6.95;6.25;;;;;;;23.39;100.00;99565.95;1779478;80;21085;-69
2022/08/05 01:06:11;;;;;;;8.55;6.17;;;;;;;23.40;100.00;99574.63;1779773;80;21036;-68
2022/08/05 01:08:38;;;;;;;7.12;6.40;;;;;;;23.45;100.00;99567.78;1779674;78;21051;-68
2022/08/05 01:11:19;;;;;;;10.50;6.15;;;;;;;23.48;100.00;99566.96;1780210;80;21461;-68
2022/08/05 01:14:07;;;;;;;9.08;6.72;;;;;;;23.49;100.00;99564.95;1778437;80;21473;-68
2022/08/05 01:16:50;;;;;;;7.20;6.50;;;;;;;23.50;100.00;99565.95;1779972;79;21066;-68
2022/08/05 01:19:38;;;;;;;7.65;5.58;;;;;;;23.53;100.00;99558.11;1785180;80;21096;-68
2022/08/05 01:22:26;;;;;;;7.25;6.28;;;;;;;23.56;100.00;99555.09;1788880;80;20911;-68
2022/08/05 01:25:13;;;;;;;7.95;6.58;;;;;;;23.55;100.00;99554.88;1732596;82;20967;-69
2022/08/05 01:28:16;;;;;;;11.97;6.80;;;;;;;23.50;100.00;99542.66;1788294;78;20904;-68
2022/08/05 01:31:05;;;;;;;11.80;6.00;;;;;;;23.38;100.00;99557.34;1788416;80;21117;-69
2022/08/05 01:33:37;;;;;;;9.53;6.47;;;;;;;23.27;100.00;99548.94;1788107;80;21010;-69
2022/08/05 01:36:09;;;;;;;7.47;6.70;;;;;;;23.29;100.00;99557.77;1788251;80;21046;-68
2022/08/05 01:38:35;;;;;;;8.93;7.05;;;;;;;23.25;100.00;99554.78;1787077;78;20971;-68
2022/08/05 01:41:01;;;;;;;8.80;6.47;;;;;;;23.22;100.00;99555.78;1780592;80;21012;-68
2022/08/05 01:43:28;;;;;;;6.30;5.70;;;;;;;23.23;100.00;99546.76;1724593;80;22032;-68
2022/08/05 01:45:55;;;;;;;8.80;6.33;;;;;;;23.23;100.00;99540.52;1779633;80;21567;-68
2022/08/05 01:48:21;;;;;;;27.30;7.22;;;;;;;23.23;100.00;99532.71;1774629;79;21055;-69
2022/08/05 01:50:48;;;;;;;9.15;6.10;;;;;;;23.23;100.00;99532.71;1779981;80;20980;-67
2022/08/05 01:53:15;;;;;;;10.78;6.10;;;;;;;23.13;100.00;99528.73;1779600;80;21516;-67
2022/08/05 01:55:44;;;;;;;11.73;6.60;;;;;;;23.05;100.00;99535.56;1785601;80;21221;-67
2022/08/05 01:58:11;;;;;;;14.10;6.60;;;;;;;23.03;100.00;99533.78;1788279;80;21073;-68
2022/08/05 02:00:41;;;;;;;8.00;6.03;;;;;;;23.03;100.00;99532.38;1788010;78;21585;-68
2022/08/05 02:03:19;;;;;;;9.98;6.92;;;;;;;23.02;100.00;99535.78;1779844;78;21574;-68
2022/08/05 02:05:46;;;;;;;14.20;7.05;;;;;;;23.02;100.00;99525.95;1783787;80;21032;-68
2022/08/05 02:08:12;;;;;;;7.50;6.67;;;;;;;23.00;100.00;99531.16;1789275;80;21578;-67
2022/08/05 02:10:45;;;;;;;12.98;6.58;;;;;;;22.95;100.00;99536.60;1793997;80;21518;-67
2022/08/05 02:13:36;;;;;;;10.25;6.35;;;;;;;22.94;100.00;99541.22;1793682;80;21025;-68
2022/08/05 02:16:10;;;;;;;13.13;6.67;;;;;;;22.91;100.00;99537.83;1794178;80;21045;-67
2022/08/05 02:18:42;;;;;;;10.25;7.83;;;;;;;22.94;100.00;99536.41;1788957;78;21007;-67
2022/08/05 02:21:13;;;;;;;9.05;6.87;;;;;;;22.96;100.00;99550.05;1792151;78;21155;-68
2022/08/05 02:23:43;;;;;;;14.53;6.45;;;;;;;22.95;100.00;99554.05;1793617;80;21474;-68
2022/08/05 02:26:10;;;;;;;7.17;6.47;;;;;;;22.93;100.00;99556.45;1793837;80;21053;-69
2022/08/05 02:28:40;;;;;;;11.85;6.78;;;;;;;22.95;100.00;99562.47;1793619;78;21070;-69
2022/08/05 02:31:10;;;;;;;9.73;7.30;;;;;;;22.99;100.00;99566.09;1793890;80;21054;-66
2022/08/05 02:33:45;;;;;;;10.43;6.53;;;;;;;22.98;100.00;99568.69;1793787;80;21091;-68
2022/08/05 02:36:12;;;;;;;8.45;7.08;;;;;;;23.01;100.00;99579.13;1793846;80;20979;-68
2022/08/05 02:38:38;;;;;;;7.97;6.75;;;;;;;23.03;100.00;99571.70;1790075;78;21054;-68
2022/08/05 02:41:05;;;;;;;12.58;7.92;;;;;;;23.05;100.00;99578.51;1787055;78;21036;-68
2022/08/05 02:43:32;;;;;;;8.85;7.08;;;;;;;23.12;100.00;99583.90;1731803;80;21040;-68
2022/08/05 02:45:58;;;;;;;8.73;7.12;;;;;;;23.16;100.00;99584.11;1785456;80;21495;-68
2022/08/05 02:48:25;;;;;;;8.08;6.92;;;;;;;23.21;100.00;99582.30;1785174;80;21079;-68
2022/08/05 02:50:51;;;;;;;7.97;6.97;;;;;;;23.25;100.00;99583.69;1785597;80;21004;-67
2022/08/05 02:53:19;;;;;;;8.35;7.55;;;;;;;23.23;100.00;99585.47;1785455;80;21035;-67
2022/08/05 02:55:47;;;;;;;7.95;7.10;;;;;;;23.23;100.00;99587.50;1785074;80;21799;-67
2022/08/05 02:58:16;;;;;;;8.55;7.65;;;;;;;23.25;100.00;99587.09;1788923;80;21831;-68
2022/08/05 03:00:44;;;;;;;9.08;6.87;;;;;;;23.25;100.00;99590.72;1788797;78;20937;-68
2022/08/05 03:03:16;;;;;;;7.95;7.15;;;;;;;23.24;100.00;99583.47;1792447;78;20968;-67
2022/08/05 03:05:42;;;;;;;11.05;7.50;;;;;;;23.27;100.00;99576.26;1789227;80;20952;-69
2022/08/05 03:08:09;;;;;;;9.23;7.28;;;;;;;23.30;100.00;99578.25;1781822;78;21086;-68
2022/08/05 03:10:36;;;;;;;10.38;7.35;;;;;;;23.26;100.00;99578.26;1787190;78;21035;-67
2022/08/05 03:13:15;;;;;;;7.42;6.72;;;;;;;23.27;100.00;99583.28;1780411;80;20875;-69
2022/08/05 03:15:46;;;;;;;8.00;7.20;;;;;;;23.34;100.00;99583.23;1798599;78;21524;-68
2022/08/05 03:18:13;;;;;;;11.15;7.20;;;;;;;23.38;100.00;99584.64;1788215;78;21473;-67
2022/08/05 03:20:40;;;;;;;8.25;7.05;;;;;;;23.43;100.00;99580.03;1784429;78;21039;-66
2022/08/05 03:23:09;;;;;;;7.55;6.85;;;;;;;23.43;100.00;99572.41;1780249;80;21988;-67
2022/08/05 03:25:36;;;;;;;8.20;7.40;;;;;;;23.48;100.00;99567.55;1779999;80;21386;-67
2022/08/05 03:28:03;;;;;;;9.90;7.95;;;;;;;23.48;100.00;99571.17;1778296;79;21495;-67
2022/08/05 03:30:31;;;;;;;12.75;7.30;;;;;;;23.46;100.00;99573.59;1787301;78;21065;-69
2022/08/05 03:32:59;;;;;;;9.83;6.90;;;;;;;23.48;100.00;99579.61;1786067;78;21074;-67
2022/08/05 03:35:28;;;;;;;10.20;8.30;;;;;;;23.50;100.00;99578.61;1788395;80;21114;-68
2022/08/05 03:37:57;;;;;;;10.88;7.40;;;;;;;23.56;100.00;99583.99;1787748;80;21008;-68
2022/08/05 03:40:25;;;;;;;8.48;7.05;;;;;;;23.62;100.00;99582.97;1781611;78;21052;-68
2022/08/05 03:42:52;;;;;;;13.90;7.60;;;;;;;23.56;100.00;99581.17;1781454;78;21047;-68
2022/08/05 03:45:19;;;;;;;8.23;7.35;;;;;;;23.53;100.00;99584.00;1775439;78;21531;-69
2022/08/05 03:47:48;;;;;;;9.38;7.30;;;;;;;23.57;100.00;99584.20;1740875;80;21140;-67
2022/08/05 03:50:15;;;;;;;11.18;7.53;;;;;;;23.62;100.00;99574.53;1769486;78;21039;-67
2022/08/05 03:52:55;;;;;;;8.23;7.42;;;;;;;23.55;100.00;99575.97;1787109;80;21641;-69
2022/08/05 03:55:31;;;;;;;8.48;7.67;;;;;;;23.53;100.00;99582.00;1772163;79;21000;-67
2022/08/05 03:57:57;;;;;;;8.20;7.33;;;;;;;23.55;100.00;99585.80;1779352;80;21036;-68
2022/08/05 04:00:28;;;;;;;9.28;7.97;;;;;;;23.59;100.00;99581.77;1786177;80;21542;-68
2022/08/05 04:02:53;;;;;;;8.70;7.35;;;;;;;23.64;100.00;99579.75;1788440;78;21554;-66
2022/08/05 04:05:21;;;;;;;10.90;7.75;;;;;;;23.61;100.00;99581.98;1779258;78;20988;-67
2022/08/05 04:07:48;;;;;;;9.03;8.10;;;;;;;23.59;100.00;99582.39;1784046;78;21017;-68
2022/08/05 04:10:17;;;;;;;8.38;7.53;;;;;;;23.64;100.00;99583.97;1787063;78;21066;-66
2022/08/05 04:12:44;;;;;;;12.18;8.60;;;;;;;23.69;100.00;99584.34;1745396;80;21720;-68
2022/08/05 04:15:10;;;;;;;11.43;8.25;;;;;;;23.71;100.00;99581.13;1787710;78;21043;-68
2022/08/05 04:17:37;;;;;;;14.53;9.10;;;;;;;23.70;100.00;99576.70;1780781;78;20956;-68
2022/08/05 04:20:05;;;;;;;10.68;7.83;;;;;;;23.68;100.00;99577.11;1784921;78;21086;-67
2022/08/05 04:22:31;;;;;;;8.83;7.92;;;;;;;23.69;100.00;99577.92;1779588;78;20996;-68
2022/08/05 04:25:00;;;;;;;11.75;8.18;;;;;;;23.63;100.00;99583.78;1786498;78;21442;-67
2022/08/05 04:27:26;;;;;;;10.45;7.90;;;;;;;23.98;100.00;99575.55;1785256;78;20929;-67
2022/08/05 04:29:52;;;;;;;11.95;9.13;;;;;;;24.07;100.00;99572.46;1776723;78;20952;-68
2022/08/05 04:32:19;;;;;;;10.88;8.53;;;;;;;23.89;100.00;99575.39;1781937;78;20983;-68
2022/08/05 04:34:45;;;;;;;12.18;8.35;;;;;;;23.90;100.00;99576.20;1788083;80;21000;-68
2022/08/05 04:37:11;;;;;;;10.72;8.85;;;;;;;23.89;100.00;99575.39;1778408;78;21165;-68
2022/08/05 04:39:38;;;;;;;9.78;8.58;;;;;;;23.84;100.00;99578.64;1776955;78;22220;-68
2022/08/05 04:42:06;;;;;;;11.55;8.25;;;;;;;23.90;100.00;99576.20;1788711;80;20988;-67
2022/08/05 04:44:33;;;;;;;10.88;8.13;;;;;;;23.92;100.00;99573.76;1782413;80;21597;-68
2022/08/05 04:47:00;;;;;;;9.18;8.25;;;;;;;23.95;100.00;99574.37;1790472;78;20896;-68
2022/08/05 04:49:28;;;;;;;8.95;8.08;;;;;;;23.94;100.00;99576.97;1782167;79;21229;-68
2022/08/05 04:51:54;;;;;;;8.43;7.62;;;;;;;23.92;100.00;99574.57;1788862;79;21075;-69
2022/08/05 04:54:21;;;;;;;10.85;7.90;;;;;;;23.87;100.00;99578.41;1784688;78;21076;-69
2022/08/05 04:56:47;;;;;;;9.38;8.43;;;;;;;23.82;100.00;99579.05;1771863;80;21019;-67
2022/08/05 04:59:15;;;;;;;14.55;8.13;;;;;;;23.86;100.00;99581.84;1788979;78;21008;-69
2022/08/05 05:01:42;;;;;;;10.95;8.20;;;;;;;23.82;100.00;99579.65;1780423;78;21868;-69
2022/08/05 05:04:09;;;;;;;12.45;8.63;;;;;;;23.84;100.00;99582.86;1789189;78;21055;-68
2022/08/05 05:06:37;;;;;;;10.82;7.65;;;;;;;23.83;100.00;99580.64;1778744;80;21015;-68
2022/08/05 05:09:04;;;;;;;10.18;7.58;;;;;;;23.83;100.00;99585.48;1778783;80;21231;-67
2022/08/05 05:11:31;;;;;;;9.28;7.85;;;;;;;23.90;100.00;99579.80;1785316;78;21091;-66
2022/08/05 05:13:59;;;;;;;9.30;7.95;;;;;;;23.94;100.00;99581.19;1783610;78;21089;-67
2022/08/05 05:16:30;;;;;;;11.30;8.85;;;;;;;24.01;100.00;99588.78;1787620;80;21030;-67
2022/08/05 05:18:57;;;;;;;9.20;8.30;;;;;;;24.01;100.00;99579.75;1786029;80;21544;-69
2022/08/05 05:21:24;;;;;;;10.35;8.35;;;;;;;24.01;100.00;99577.53;1787891;78;21047;-67
2022/08/05 05:23:50;;;;;;;9.30;8.20;;;;;;;23.99;100.00;99575.73;1788277;80;21004;-69
2022/08/05 05:26:18;;;;;;;9.75;7.97;;;;;;;23.91;100.00;99574.98;1788182;78;21320;-68
2022/08/05 05:28:47;;;;;;;9.43;7.95;;;;;;;23.81;100.00;99584.49;1790723;78;21079;-68
2022/08/05 05:31:13;;;;;;;12.58;9.00;;;;;;;23.81;100.00;99587.30;1784343;80;20928;-68
2022/08/05 05:33:40;;;;;;;9.75;7.72;;;;;;;23.78;100.00;99590.91;1780849;78;21037;-68
2022/08/05 05:36:09;;;;;;;12.50;8.40;;;;;;;23.80;100.00;99591.31;1777902;79;21072;-68
2022/08/05 05:38:35;;;;;;;9.30;8.40;;;;;;;23.80;100.00;99590.50;1778933;80;21760;-67
2022/08/05 05:41:03;;;;;;;10.00;9.00;;;;;;;23.84;100.00;99594.11;1787932;80;20955;-69
2022/08/05 05:43:34;;;;;;;8.30;7.50;;;;;;;23.92;100.00;99597.67;1791916;78;20990;-65
2022/08/05 05:46:08;;;;;;;8.45;7.65;;;;;;;23.90;100.00;99594.48;1787408;80;20989;-67
2022/08/05 05:48:40;;;;;;;8.30;7.50;;;;;;;24.17;100.00;99593.33;1786256;80;20837;-68
2022/08/05 05:51:09;;;;;;;7.58;6.87;;;;;;;24.26;100.00;99590.68;1783071;78;21718;-67
2022/08/05 05:53:41;;;;;;;8.28;7.40;;;;;;;24.38;100.00;99599.23;1745478;80;21072;-68
2022/08/05 05:56:10;;;;;;;10.93;7.03;;;;;;;24.51;100.00;99601.75;1788628;79;21047;-69
2022/08/05 05:58:38;;;;;;;9.93;7.80;;;;;;;24.62;100.00;99602.24;1786071;79;21000;-68
2022/08/05 06:01:08;;;;;;;9.35;8.35;;;;;;;24.74;100.00;99600.93;1782341;79;21418;-67
2022/08/05 06:03:36;;;;;;;11.55;8.63;;;;;;;24.58;100.00;99606.52;1778460;78;21109;-66
2022/08/05 06:06:06;;;;;;;8.25;7.28;;;;;;;24.49;100.00;99604.17;1778063;78;20982;-68
2022/08/05 06:08:33;;;;;;;8.43;7.50;;;;;;;24.43;100.00;99611.44;1786107;79;21045;-66
2022/08/05 06:11:05;;;;;;;10.98;7.42;;;;;;;24.42;100.00;99611.26;1760706;81;20930;-68
2022/08/05 06:13:32;;;;;;;9.33;8.33;;;;;;;24.45;100.00;99601.98;1773608;80;21477;-66
2022/08/05 06:15:58;;;;;;;11.30;8.40;;;;;;;24.39;100.00;99598.02;1791749;79;21776;-67
2022/08/05 06:18:25;;;;;;;10.65;7.53;;;;;;;24.35;100.00;99602.26;1751671;81;20969;-67
2022/08/05 06:20:51;;;;;;;9.45;8.18;;;;;;;24.39;100.00;99605.05;1709882;82;21584;-66
2022/08/05 06:23:18;;;;;;;8.78;7.87;;;;;;;24.42;100.00;99602.81;1706175;84;21048;-67
2022/08/05 06:25:44;;;;;;;11.30;8.30;;;;;;;24.41;100.00;99599.19;1725018;81;21000;-68
2022/08/05 06:28:13;;;;;;;12.75;7.72;;;;;;;24.45;100.00;99605.42;1731214;82;21052;-67
2022/08/05 06:30:39;;;;;;;9.95;8.15;;;;;;;24.48;100.00;99595.52;1731071;83;20975;-67
2022/08/05 06:33:11;;;;;;;13.70;8.30;;;;;;;24.53;100.00;99602.11;1729961;82;21037;-67
2022/08/05 06:35:40;;;;;;;9.70;8.68;;;;;;;24.58;100.00;99595.86;1762447;81;21586;-68
2022/08/05 06:38:07;;;;;;;12.93;8.55;;;;;;;24.62;100.00;99595.20;1765772;81;20952;-65
2022/08/05 06:40:33;;;;;;;24.47;9.85;;;;;;;24.72;100.00;99592.13;1741030;81;21139;-67
2022/08/05 06:43:00;;;;;;;10.55;8.60;;;;;;;24.83;100.00;99591.41;1734936;82;20996;-68
2022/08/05 06:45:28;;;;;;;12.18;10.23;;;;;;;24.93;100.00;99591.13;1734656;82;21055;-65
2022/08/05 06:47:55;;;;;;;11.40;9.60;;;;;;;25.00;100.00;99598.11;1750308;82;21012;-66
2022/08/05 06:50:23;;;;;;;11.28;10.18;;;;;;;25.06;100.00;99604.08;1750099;82;21076;-67
2022/08/05 06:52:50;;;;;;;14.95;10.65;;;;;;;25.11;100.00;99595.80;1734895;82;21740;-65
2022/08/05 06:55:17;;;;;;;13.25;11.00;;;;;;;25.18;100.00;99599.92;1754535;80;20885;-67
2022/08/05 06:57:45;;;;;;;13.18;10.82;;;;;;;25.27;100.00;99596.02;1729908;83;20884;-67
2022/08/05 07:00:14;;;;;;;13.40;10.98;;;;;;;25.36;100.00;99598.94;1752602;80;21059;-66
2022/08/05 07:02:47;;;;;;;14.58;10.75;;;;;;;25.40;100.00;99593.44;1726450;81;21093;-65
2022/08/05 07:05:15;;;;;;;21.73;11.68;;;;;;;25.47;100.00;99595.38;1739524;82;20952;-65
2022/08/05 07:07:48;;;;;;;12.15;10.93;;;;;;;25.46;100.00;99596.60;1760355;81;21011;-66
2022/08/05 07:10:19;;;;;;;12.65;11.40;;;;;;;25.37;100.00;99595.70;1748780;81;21508;-67
2022/08/05 07:18:31;;;;;;;15.80;12.23;;;;;;;25.35;100.00;99600.17;1739000;82;21516;-67
2022/08/05 07:20:58;;;;;;;15.15;12.30;;;;;;;25.17;100.00;99601.16;1737168;81;21059;-66
2022/08/05 07:23:32;;;;;;;17.25;12.80;;;;;;;25.17;100.00;99605.38;1743020;82;21008;-66
2022/08/05 07:26:03;;;;;;;14.55;12.33;;;;;;;25.24;100.00;99604.50;1734110;82;20990;-65
2022/08/05 07:28:29;;;;;;;17.87;13.78;;;;;;;25.31;100.00;99608.66;1739430;81;21084;-66
2022/08/05 07:30:55;;;;;;;13.83;12.43;;;;;;;25.33;100.00;99606.83;1740496;81;21531;-66
2022/08/05 07:33:22;;;;;;;18.12;13.22;;;;;;;25.41;100.00;99605.52;1738722;81;21021;-66
2022/08/05 07:35:54;;;;;;;16.82;12.65;;;;;;;25.44;100.00;99606.09;1731290;81;21564;-66
2022/08/05 07:38:21;;;;;;;16.75;13.70;;;;;;;25.52;100.00;99611.05;1733197;81;21078;-65
2022/08/05 07:40:53;;;;;;;15.75;14.15;;;;;;;25.62;100.00;99609.31;1729051;82;21062;-67
2022/08/05 07:43:19;;;;;;;18.50;14.63;;;;;;;25.69;100.00;99607.81;1739400;81;21141;-67
2022/08/05 07:45:45;;;;;;;16.12;13.68;;;;;;;25.76;100.00;99609.14;1731411;81;21040;-67
2022/08/05 07:48:13;;;;;;;18.65;15.72;;;;;;;25.79;100.00;99616.58;1726340;82;21539;-67
2022/08/05 07:50:40;;;;;;;21.87;16.32;;;;;;;25.80;100.00;99610.52;1723696;82;21589;-66
2022/08/05 07:53:10;;;;;;;18.60;16.00;;;;;;;25.70;100.00;99609.44;1704561;82;21600;-68
2022/08/05 07:55:40;;;;;;;18.90;16.23;;;;;;;25.64;100.00;99609.09;1737732;81;22133;-67
2022/08/05 07:58:09;;;;;;;18.45;15.78;;;;;;;25.70;100.00;99609.44;1729710;82;20993;-68
2022/08/05 08:00:39;;;;;;;20.57;14.63;;;;;;;25.82;100.00;99608.67;1775054;80;21007;-67
2022/08/05 08:03:11;;;;;;;17.15;15.35;;;;;;;25.94;100.00;99617.18;1781684;80;21102;-67
2022/08/05 08:05:40;;;;;;;15.25;13.40;;;;;;;26.04;100.00;99616.84;1748829;81;21050;-67
2022/08/05 08:08:06;;;;;;;18.32;13.22;;;;;;;26.25;100.00;99611.50;1788520;80;21079;-68
2022/08/05 08:10:43;;;;;;;14.63;13.05;;;;;;;26.37;100.00;99622.84;1789185;80;21461;-68
2022/08/05 08:13:14;;;;;;;13.98;12.47;;;;;;;26.54;100.00;99613.91;1783605;80;21148;-67
2022/08/05 08:15:40;;;;;;;17.40;13.70;;;;;;;26.61;100.00;99618.00;1789735;78;21013;-68
2022/08/05 08:18:07;;;;;;;14.23;12.78;;;;;;;26.67;100.00;99615.50;1784252;78;21117;-67
2022/08/05 08:20:34;;;;;;;17.75;12.68;;;;;;;26.71;100.00;99614.84;1785966;78;21249;-65
2022/08/05 08:23:03;;;;;;;15.43;12.43;;;;;;;26.73;100.00;99609.53;1756284;80;21020;-67
2022/08/05 08:25:33;;;;;;;14.15;12.37;;;;;;;26.80;100.00;99605.78;1755541;80;21008;-68
2022/08/05 08:28:08;;;;;;;15.32;12.43;;;;;;;26.81;100.00;99610.22;1752239;81;21035;-67
2022/08/05 08:30:35;;;;;;;17.48;13.15;;;;;;;26.86;100.00;99607.52;1753823;80;21061;-64
2022/08/05 08:33:10;;;;;;;14.23;11.68;;;;;;;26.92;100.00;99607.19;1722649;82;21850;-68
2022/08/05 08:35:37;;;;;;;15.00;13.03;;;;;;;26.94;100.00;99604.73;1714809;82;21072;-66
2022/08/05 08:38:05;;;;;;;13.58;12.28;;;;;;;26.88;100.00;99602.23;1729798;83;21019;-67
2022/08/05 08:40:34;;;;;;;20.17;12.47;;;;;;;26.85;100.00;99598.86;1777460;80;20877;-67
2022/08/05 08:43:01;;;;;;;17.82;12.68;;;;;;;26.80;100.00;99597.31;1729642;81;20984;-67
2022/08/05 08:45:27;;;;;;;15.05;12.68;;;;;;;26.80;100.00;99600.77;1734965;81;21068;-66
2022/08/05 08:48:01;;;;;;;15.45;13.10;;;;;;;26.80;100.00;99597.31;1702476;82;21056;-66
2022/08/05 08:50:27;;;;;;;12.93;11.63;;;;;;;26.74;100.00;99597.63;1729946;81;20990;-65
2022/08/05 08:52:59;;;;;;;13.32;11.93;;;;;;;26.80;100.00;99603.59;1734247;81;21033;-65
2022/08/05 08:55:26;;;;;;;15.10;12.45;;;;;;;26.88;100.00;99605.06;1736371;81;20948;-65
2022/08/05 08:57:55;;;;;;;14.30;12.85;;;;;;;27.04;100.00;99611.45;1725651;82;21143;-66
2022/08/05 09:00:27;;;;;;;13.80;12.30;;;;;;;27.17;100.00;99613.65;1733219;81;21106;-67
2022/08/05 09:03:01;;;;;;;14.20;12.05;;;;;;;27.31;100.00;99616.19;1746689;81;21418;-67
2022/08/05 09:05:27;;;;;;;12.98;11.70;;;;;;;27.37;100.00;99606.59;1749991;81;21255;-67
2022/08/05 09:07:55;;;;;;;13.00;11.40;;;;;;;27.26;100.00;99596.89;1750983;80;21458;-66
2022/08/05 09:10:24;;;;;;;13.88;12.00;;;;;;;27.16;100.00;99595.88;1715456;82;21228;-67
2022/08/05 09:12:52;;;;;;;16.12;13.53;;;;;;;27.10;100.00;99606.91;1731842;80;21525;-67
2022/08/05 09:15:18;;;;;;;16.87;14.53;;;;;;;27.00;100.00;99611.30;1738393;80;21037;-66
2022/08/05 09:17:50;;;;;;;16.23;14.55;;;;;;;26.83;100.00;99613.42;1769369;78;21063;-66
2022/08/05 09:20:17;;;;;;;17.02;14.70;;;;;;;26.86;100.00;99614.58;1781566;78;20999;-66
2022/08/05 09:23:09;;;;;;;16.60;13.45;;;;;;;26.85;100.00;99618.00;1781270;78;21815;-66
2022/08/05 09:25:42;;;;;;;14.58;13.08;;;;;;;26.87;100.00;99617.58;1786716;78;21180;-66
2022/08/05 09:28:18;;;;;;;17.23;14.23;;;;;;;26.87;100.00;99628.88;1780760;78;21003;-65
2022/08/05 09:31:05;;;;;;;15.90;13.00;;;;;;;26.83;100.00;99619.08;1785178;80;20973;-66
2022/08/05 09:33:34;;;;;;;13.98;12.50;;;;;;;26.84;100.00;99617.84;1751573;78;21100;-66
2022/08/05 09:36:03;;;;;;;14.45;11.97;;;;;;;26.91;100.00;99621.14;1756971;78;21378;-67
2022/08/05 09:38:32;;;;;;;13.80;12.33;;;;;;;27.02;100.00;99621.57;1750098;80;21496;-66
2022/08/05 09:41:05;;;;;;;13.68;12.28;;;;;;;27.15;100.00;99621.15;1766200;80;21031;-66
2022/08/05 09:43:35;;;;;;;15.80;12.93;;;;;;;27.26;100.00;99626.59;1790610;78;21633;-66
2022/08/05 09:46:10;;;;;;;16.75;12.93;;;;;;;27.32;100.00;99613.56;1745071;80;21005;-68
2022/08/05 09:48:37;;;;;;;14.20;12.70;;;;;;;27.42;100.00;99622.25;1783460;78;22599;-67
2022/08/05 09:51:07;;;;;;;14.73;13.22;;;;;;;27.31;100.00;99623.89;1783639;78;20937;-66
2022/08/05 09:53:50;;;;;;;14.55;12.85;;;;;;;27.45;100.00;99615.11;1787136;78;21476;-67
2022/08/05 09:56:29;;;;;;;16.77;14.13;;;;;;;27.46;100.00;99613.89;1771022;78;20952;-64
2022/08/05 09:58:57;;;;;;;13.65;12.23;;;;;;;27.46;100.00;99617.33;1725304;82;20979;-66
2022/08/05 10:01:24;;;;;;;16.10;13.83;;;;;;;27.45;100.00;99616.52;1783218;78;21240;-65
2022/08/05 10:04:11;;;;;;;19.55;14.13;;;;;;;27.48;100.00;99621.13;1787708;80;20895;-65
2022/08/05 10:06:39;;;;;;;15.68;12.78;;;;;;;27.45;100.00;99624.20;1788801;78;21019;-65
2022/08/05 10:09:14;;;;;;;17.20;12.82;;;;;;;27.42;100.00;99624.47;1789760;78;20963;-67
2022/08/05 10:11:41;;;;;;;16.25;13.80;;;;;;;27.37;100.00;99626.39;1708450;83;21138;-65
2022/08/05 10:14:29;;;;;;;14.80;13.35;;;;;;;27.49;100.00;99622.72;1712067;83;21122;-67
2022/08/05 10:17:12;;;;;;;16.55;13.95;;;;;;;27.55;100.00;99621.00;1728620;81;20997;-65
2022/08/05 10:19:39;;;;;;;14.35;12.53;;;;;;;27.38;100.00;99622.31;1736311;81;20986;-65
2022/08/05 10:22:07;;;;;;;15.15;13.60;;;;;;;27.42;100.00;99626.49;1709566;83;21037;-65
2022/08/05 10:24:36;;;;;;;14.83;13.18;;;;;;;27.44;100.00;99624.84;1711837;83;20961;-68
2022/08/05 10:27:02;;;;;;;15.40;13.22;;;;;;;27.45;100.00;99625.62;1712010;83;21146;-65
2022/08/05 10:29:32;;;;;;;19.80;13.50;;;;;;;27.48;100.00;99619.72;1712402;83;21100;-65
2022/08/05 10:31:57;;;;;;;18.40;13.85;;;;;;;27.42;100.00;99622.25;1713404;83;20966;-66
2022/08/05 10:34:23;;;;;;;20.48;14.45;;;;;;;27.43;100.00;99623.23;1713557;83;20890;-66
2022/08/05 10:36:51;;;;;;;15.75;13.20;;;;;;;27.49;100.00;99625.55;1713050;83;21016;-66
2022/08/05 10:39:20;;;;;;;17.48;14.25;;;;;;;27.46;100.00;99628.03;1730509;82;21124;-66
2022/08/05 10:42:02;;;;;;;15.95;14.07;;;;;;;27.48;100.00;99625.38;1744133;82;20883;-66
2022/08/05 10:44:31;;;;;;;20.15;15.23;;;;;;;27.57;100.00;99628.41;1730141;83;20974;-66
2022/08/05 10:46:59;;;;;;;16.30;14.60;;;;;;;27.62;100.00;99629.95;1702346;82;20959;-67
2022/08/05 10:49:28;;;;;;;15.70;14.05;;;;;;;27.72;100.00;99627.55;1695151;82;20992;-66
2022/08/05 10:52:01;;;;;;;15.78;14.18;;;;;;;27.81;100.00;99626.33;1744222;82;21154;-66
2022/08/05 10:54:49;;;;;;;15.53;13.85;;;;;;;27.85;100.00;99623.42;1744239;82;20953;-65
2022/08/05 10:57:26;;;;;;;16.87;14.53;;;;;;;27.83;100.00;99628.11;1741886;82;21064;-66
2022/08/05 11:00:11;;;;;;;17.55;15.00;;;;;;;27.85;100.00;99620.59;1744097;82;21040;-66
2022/08/05 11:02:38;;;;;;;17.77;14.95;;;;;;;27.79;100.00;99625.96;1744356;82;20932;-69
2022/08/05 11:05:08;;;;;;;17.37;14.93;;;;;;;27.88;100.00;99625.38;1721702;81;21108;-66
2022/08/05 11:08:03;;;;;;;16.17;14.55;;;;;;;27.98;100.00;99627.00;1719685;82;20932;-67
2022/08/05 11:10:33;;;;;;;16.55;14.18;;;;;;;28.03;100.00;99625.84;1713029;83;20987;-65
2022/08/05 11:13:00;;;;;;;18.30;14.30;;;;;;;28.03;100.00;99623.02;1726768;83;20947;-66
2022/08/05 11:15:32;;;;;;;17.35;14.60;;;;;;;27.98;100.00;99624.17;1700308;83;20999;-66
2022/08/05 11:18:26;;;;;;;16.65;14.38;;;;;;;27.90;100.00;99620.08;1697740;84;21136;-65
2022/08/05 11:20:53;;;;;;;18.40;14.83;;;;;;;27.75;100.00;99620.20;1691599;84;20972;-66
2022/08/05 11:23:55;;;;;;;18.90;14.65;;;;;;;27.79;100.00;99617.47;1700841;84;21065;-66
2022/08/05 11:26:26;;;;;;;16.32;14.45;;;;;;;27.75;100.00;99617.38;1726654;83;21039;-66
2022/08/05 11:28:53;;;;;;;23.20;15.43;;;;;;;27.62;100.00;99617.22;1739151;81;20952;-66
2022/08/05 11:31:27;;;;;;;19.98;14.65;;;;;;;27.70;100.00;99620.91;1748599;81;21156;-66
2022/08/05 11:33:55;;;;;;;17.02;14.80;;;;;;;27.85;100.00;99624.84;1772634;80;21532;-66
2022/08/05 11:36:45;;;;;;;15.90;14.03;;;;;;;28.00;100.00;99625.92;1788200;80;20965;-66